Latest Coastal Weather Observations for Bellambi

IDN60701

Issued at 12:21 am EST Tuesday 30 August 2016 (issued every 10 minutes, with the page automatically refreshed every 10 minutes)

About coastal observations | Map of coastal stations | Coastal observations for NSW | Marine services | Other Formats
Station Details ID: 068228 Name: BELLAMBI AWS Lat: -34.37 Lon: 150.93 Height: 10.0 m
Data from the previous 72 hours. | See also: Recent months at Bellambi
Date/Time
EST
Temp
°C
Wind Pressure Rain since
9am
mm
Weather Cloud Vis
km
Sea
Height
m
Swell
Dir  Spd
kts
Gust
kts
hPa Trend Height
m
Period
s
Dir
30/12:00am 14.1 NW 6 8 - - 0.0 - Partly cloudy - - - - -
 
Date/Time
EST
Temp
°C
Wind Pressure Rain since
9am
mm
Weather Cloud Vis
km
Sea
Height
m
Swell
Dir  Spd
kts
Gust
kts
hPa Trend Height
m
Period
s
Dir
29/11:30pm 14.8 NNW 7 9 - - 0.0 - - - - - - -
29/11:00pm 14.9 NNW 6 8 - - 0.0 - - - - - - -
29/10:30pm 15.1 N 8 10 - - 0.0 - - - - - - -
29/10:00pm 15.4 N 7 9 - - 0.0 - - - - - - -
29/09:30pm 15.1 NNW 8 10 - - 0.0 - - - - - - -
29/09:00pm 15.0 NNW 6 8 - - 0.0 - Mostly cloudy - - - - -
29/08:30pm 15.0 NNW 6 7 - - 0.0 - - - - - - -
29/08:00pm 14.6 NNW 4 5 - - 0.0 - - - - - - -
29/07:30pm 14.7 NNW 3 5 - - 0.0 - - - - - - -
29/07:00pm 14.9 NW 5 6 - - 0.0 - - - - - - -
29/06:30pm 15.5 NNW 6 7 - - 0.0 - - - - - - -
29/06:00pm 16.0 NNW 5 7 - - 0.0 - Mostly cloudy - - - - -
29/05:30pm 16.3 N 5 6 - - 0.0 - - - - - - -
29/05:00pm 16.5 NNE 5 7 - - 0.0 - - - - - - -
29/04:30pm 16.5 NE 6 7 - - 0.0 - - - - - - -
29/04:00pm 17.2 ENE 5 7 - - 0.0 - - - - - - -
29/03:30pm 17.1 ENE 5 6 - - 0.0 - - - - - - -
29/03:00pm 17.8 ENE 5 6 - - 0.0 - Mostly cloudy - - - - -
29/02:30pm 17.4 ENE 5 6 - - 0.0 - - - - - - -
29/02:00pm 18.3 ENE 4 6 - - 0.0 - - - - - - -
29/01:30pm 18.0 ENE 4 5 - - 0.0 - - - - - - -
29/01:00pm 18.1 NNE 3 5 - - 0.0 - - - - - - -
29/12:30pm 18.1 E 3 4 - - 0.0 - - - - - - -
29/12:00pm 17.6 ESE 4 5 - - 0.0 - Mostly cloudy - - - - -
29/11:30am 17.5 ENE 4 5 - - 0.0 - - - - - - -
29/11:00am 17.8 E 3 4 - - 0.0 - - - - - - -
29/10:30am 17.4 E 3 4 - - 0.0 - - - - - - -
29/10:00am 17.2 ESE 3 4 - - 0.0 - - - - - - -
29/09:30am 17.1 CALM 0 2 - - 0.0 - - - - - - -
29/09:00am 16.4 CALM 0 3 - - 0.0 - Mostly cloudy - - - - -
29/08:30am 15.7 CALM 0 3 - - 0.0 - - - - - - -
29/08:00am 13.9 NW 2 3 - - 0.0 - - - - - - -
29/07:30am 11.6 CALM 0 1 - - 0.0 - - - - - - -
29/07:00am 10.7 NW 3 5 - - 0.0 - - - - - - -
29/06:30am 9.8 WNW 1 3 - - 0.0 - - - - - - -
29/06:00am 10.4 W 4 4 - - 0.0 - Mostly cloudy - - - - -
29/05:30am 11.1 W 5 6 - - 0.0 - - - - - - -
29/05:00am 10.5 NW 5 6 - - 0.0 - - - - - - -
29/04:30am 11.2 WNW 5 6 - - 0.0 - - - - - - -
29/04:00am 10.6 WNW 6 7 - - 0.0 - - - - - - -
29/03:30am 10.5 WNW 6 7 - - 0.0 - - - - - - -
29/03:00am 10.4 NW 6 7 - - 0.0 - - - - - - -
29/02:30am 10.9 WNW 5 6 - - 0.0 - - - - - - -
29/02:00am 11.2 WNW 5 7 - - 0.0 - - - - - - -
29/01:30am 11.0 WNW 6 8 - - 0.0 - - - - - - -
29/01:00am 11.4 WNW 8 9 - - 0.0 - - - - - - -
29/12:30am 11.6 WNW 6 7 - - 0.0 - - - - - - -
29/12:00am 12.6 WNW 4 5 - - 0.0 - Cloudy - - - - -
 
Date/Time
EST
Temp
°C
Wind Pressure Rain since
9am
mm
Weather Cloud Vis
km
Sea
Height
m
Swell
Dir  Spd
kts
Gust
kts
hPa Trend Height
m
Period
s
Dir
28/11:30pm 13.3 WNW 5 6 - - 0.0 - - - - - - -
28/11:00pm 13.2 W 6 9 - - 0.0 - - - - - - -
28/10:30pm 12.6 WSW 5 8 - - 0.0 - - - - - - -
28/10:00pm 12.4 CALM 0 4 - - 0.0 - - - - - - -
28/09:30pm 12.6 NW 4 6 - - 0.0 - - - - - - -
28/09:00pm 12.5 WSW 5 7 - - 0.0 - Partly cloudy - - - - -
28/08:30pm 12.5 SW 6 7 - - 0.0 - - - - - - -
28/08:00pm 13.9 WSW 7 8 - - 0.0 - - - - - - -
28/07:30pm 13.4 WSW 6 7 - - 0.0 - - - - - - -
28/07:00pm 13.6 WSW 6 7 - - 0.0 - - - - - - -
28/06:30pm 13.4 WNW 3 5 - - 0.0 - - - - - - -
28/06:00pm 14.4 WSW 3 4 - - 0.0 - - - - - - -
28/05:30pm 15.8 W 4 5 - - 0.0 - - - - - - -
28/05:00pm 17.3 WSW 5 9 - - 0.0 - - - - - - -
28/04:30pm 17.7 WSW 6 11 - - 0.0 - - - - - - -
28/04:00pm 18.2 WSW 8 12 - - 0.0 - - - - - - -
28/03:30pm 18.0 W 13 17 - - 0.0 - - - - - - -
28/03:00pm 18.4 SW 7 10 - - 0.0 - - - - - - -
28/02:30pm 17.2 SSE 7 11 - - 0.0 - - - - - - -
28/02:00pm 17.3 SSE 8 9 - - 0.0 - - - - - - -
28/01:30pm 17.3 SSE 11 13 - - 0.0 - - - - - - -
28/01:00pm 17.2 SSE 13 15 - - 0.0 - - - - - - -
28/12:30pm 17.5 SSE 12 14 - - 0.0 - - - - - - -
28/12:00pm 17.2 S 11 14 - - 0.0 - - - - - - -
28/11:30am 18.1 S 9 14 - - 0.0 - - - - - - -
28/11:00am 17.0 S 13 17 - - 0.0 - - - - - - -
28/10:30am 17.1 SW 10 13 - - 0.0 - - - - - - -
28/10:00am 16.5 SW 11 15 - - 0.0 - - - - - - -
28/09:30am 15.4 WSW 11 14 - - 0.0 - - - - - - -
28/09:00am 14.7 WSW 11 16 - - 0.0 - - - - - - -
28/08:30am 13.9 WSW 11 19 - - 0.0 - - - - - - -
28/08:00am 13.0 WSW 11 16 - - 0.0 - - - - - - -
28/07:30am 11.7 WSW 6 10 - - 0.0 - - - - - - -
28/07:00am 11.1 WSW 9 12 - - 0.0 - - - - - - -
28/06:30am 10.8 WSW 11 17 - - 0.0 - - - - - - -
28/06:17am 10.8 WSW 12 20 - - 0.0 - - - - - - -
28/06:00am 10.3 WSW 6 10 - - 0.0 - - - - - - -
28/05:30am 10.9 WSW 10 17 - - 0.0 - - - - - - -
28/05:00am 11.1 WSW 13 21 - - 0.0 - - - - - - -
28/04:30am 10.9 WSW 13 19 - - 0.0 - - - - - - -
28/04:00am 11.1 WSW 12 20 - - 0.0 - - - - - - -
28/03:30am 11.3 W 17 28 - - 0.0 - - - - - - -
28/03:00am 11.1 W 16 26 - - 0.0 - Mostly clear - - - - -
28/02:48am 11.0 WSW 15 25 - - 0.0 - - - - - - -
28/02:30am 10.9 WSW 12 21 - - 0.0 - - - - - - -
28/02:00am 11.2 W 13 24 - - 0.0 - - - - - - -
28/01:30am 11.1 W 10 14 - - 0.0 - - - - - - -
28/01:00am 11.4 W 12 18 - - 0.0 - - - - - - -
28/12:30am 11.7 W 10 19 - - 0.0 - - - - - - -
28/12:00am 11.8 W 13 21 - - 0.0 - - - - - - -
 
Date/Time
EST
Temp
°C
Wind Pressure Rain since
9am
mm
Weather Cloud Vis
km
Sea
Height
m
Swell
Dir  Spd
kts
Gust
kts
hPa Trend Height
m
Period
s
Dir
27/11:30pm 12.2 WNW 14 26 - - 0.0 - - - - - - -
27/11:00pm 12.3 SSW 5 10 - - 0.0 - - - - - - -
27/10:30pm 12.2 SW 11 23 - - 0.0 - - - - - - -
27/10:00pm 12.6 W 14 20 - - 0.0 - - - - - - -
27/09:30pm 12.9 W 12 18 - - 0.0 - - - - - - -
27/09:00pm 13.1 WNW 10 14 - - 0.0 - - - - - - -
27/08:30pm 13.4 WNW 9 12 - - 0.0 - - - - - - -
27/08:00pm 13.9 W 9 13 - - 0.0 - - - - - - -
27/07:30pm 13.8 W 7 11 - - 0.0 - - - - - - -
27/07:00pm 12.9 W 4 8 - - 0.0 - - - - - - -
27/06:30pm 13.4 SSW 2 4 - - 0.0 - - - - - - -
27/06:00pm 14.2 NW 4 5 - - 0.0 - - - - - - -
27/05:30pm 15.5 NNW 5 7 - - 0.0 - - - - - - -
27/05:00pm 17.5 N 8 9 - - 0.0 - - - - - - -
27/04:30pm 18.0 N 8 11 - - 0.0 - - - - - - -
27/04:00pm 18.3 N 8 11 - - 0.0 - - - - - - -
27/03:30pm 18.3 NNE 7 12 - - 0.0 - - - - - - -
27/03:00pm 17.2 ENE 11 13 - - 0.0 - - - - - - -
27/02:30pm 17.0 ENE 13 17 - - 0.0 - - - - - - -
27/02:00pm 17.4 ENE 10 12 - - 0.0 - - - - - - -
27/01:30pm 17.0 ENE 12 14 - - 0.0 - - - - - - -
27/01:00pm 17.3 NNE 10 14 - - 0.0 - - - - - - -
27/12:30pm 17.8 NNE 6 9 - - 0.0 - - - - - - -
27/12:00pm 17.9 NE 2 5 - - 0.0 - - - - - - -
27/11:30am 17.4 NW 8 12 - - 0.0 - - - - - - -
27/11:00am 17.1 WNW 6 10 - - 0.0 - - - - - - -
27/10:30am 16.2 WSW 7 13 - - 0.0 - - - - - - -
27/10:00am 15.3 N 7 10 - - 0.0 - - - - - - -
27/09:30am 14.8 NNW 6 9 - - 0.0 - - - - - - -
27/09:00am 13.4 WNW 9 11 - - 0.0 - - - - - - -
27/08:30am 13.1 NW 6 9 - - 0.0 - - - - - - -
27/08:00am 12.2 NW 4 6 - - 0.0 - - - - - - -
27/07:30am 11.2 WNW 5 7 - - 0.0 - - - - - - -
27/07:00am 10.1 W 6 8 - - 0.0 - - - - - - -
27/06:30am 9.3 WSW 6 9 - - 0.0 - - - - - - -
27/06:00am 9.2 W 5 6 - - 0.0 - - - - - - -
27/05:30am 9.4 W 5 6 - - 0.0 - - - - - - -
27/05:00am 9.2 WNW 5 5 - - 0.0 - - - - - - -
27/04:30am 9.5 WNW 3 5 - - 0.0 - - - - - - -
27/04:00am 9.6 W 5 7 - - 0.0 - - - - - - -
27/03:30am 9.3 WNW 5 6 - - 0.0 - - - - - - -
27/03:00am 9.6 NW 5 6 - - 0.0 - - - - - - -
27/02:30am 9.9 W 7 9 - - 0.0 - - - - - - -
27/02:00am 9.6 WNW 5 6 - - 0.0 - - - - - - -
27/01:30am 9.9 W 6 7 - - 0.0 - - - - - - -
27/01:00am 10.1 W 6 7 - - 0.0 - - - - - - -
27/12:30am 10.4 W 7 8 - - 0.0 - Partly cloudy - - - - -

Other Formats:

Comma delimited format used in spreadsheet applications
http://www.bom.gov.au/fwo/IDN60701/IDN60701.94749.axf

JavaScript Object Notation format (JSON) in row-major order
http://www.bom.gov.au/fwo/IDN60701/IDN60701.94749.json